Ogden, Arkansas
Current Conditions -  °F | °C
As of 9:53 AM on Sunday 21 Dec 2014 (Local Time) from KTXK Reporting Station
Haze Haze  
Wind Chill:   Ceiling: 4000
Heat Index:   Visibility: 6mi
Dew Point:   Wind: 5mph
Humidity: 89%   Direction: 100°E
Pressure: 30.15"   Gusts: NA
Location:  33.58°N, 94.04°W
Report Text: KTXK 211553Z 10004KT 6SM BR OVC040 05/03 A3015 RMK AO2 SLP209 T00500033
Loading
Personal Weather Stations






























Interactive Weather Map New forecast layout! Learn more

10-Day Weather Forecast

Advertisements
Track Severe Weather on mobile